createdAt,value
2023-05-04T00:01:18.681Z,12.50
2023-05-04T00:03:47.094Z,10.73
2023-05-04T00:06:17.917Z,11.40
2023-05-04T00:08:46.165Z,10.93
2023-05-04T00:11:14.193Z,10.40
2023-05-04T00:13:42.192Z,10.57
2023-05-04T00:16:11.066Z,10.07
2023-05-04T00:18:39.251Z,10.10
2023-05-04T00:21:07.384Z,10.63
2023-05-04T00:23:36.727Z,10.97
2023-05-04T00:26:04.695Z,10.17
2023-05-04T00:28:32.879Z,9.87
2023-05-04T00:31:00.882Z,10.53
2023-05-04T00:33:28.930Z,9.60
2023-05-04T00:35:57.269Z,9.63
2023-05-04T00:38:25.340Z,9.80
2023-05-04T00:40:54.789Z,10.70
2023-05-04T00:43:22.789Z,11.50
2023-05-04T00:45:50.914Z,11.47
2023-05-04T00:48:19.210Z,10.70
2023-05-04T00:50:47.246Z,10.60
2023-05-04T00:53:15.255Z,11.50
2023-05-04T00:55:43.262Z,12.03
2023-05-04T00:58:12.763Z,12.53
2023-05-04T01:00:40.729Z,13.43
2023-05-04T01:03:11.211Z,12.87
2023-05-04T01:05:49.473Z,13.03
2023-05-04T01:08:22.939Z,13.83
2023-05-04T01:10:57.706Z,13.70
2023-05-04T01:13:29.269Z,14.27
2023-05-04T01:15:57.829Z,14.67
2023-05-04T01:18:26.605Z,14.17
2023-05-04T01:20:54.586Z,14.40
2023-05-04T01:23:24.198Z,14.40
2023-05-04T01:26:02.087Z,14.43
2023-05-04T01:28:36.348Z,14.50
2023-05-04T01:31:07.975Z,15.67
2023-05-04T01:33:36.661Z,14.63
2023-05-04T01:36:05.176Z,15.30
2023-05-04T01:38:35.295Z,15.40
2023-05-04T01:41:03.384Z,15.50
2023-05-04T01:43:31.421Z,16.10
2023-05-04T01:45:59.354Z,16.37
2023-05-04T01:48:28.385Z,15.17
2023-05-04T01:50:56.746Z,14.57
2023-05-04T01:53:24.750Z,15.60
2023-05-04T01:55:54.354Z,15.13
2023-05-04T01:58:22.318Z,15.50
2023-05-04T02:00:50.510Z,15.47
2023-05-04T02:03:18.675Z,15.87
2023-05-04T02:05:46.899Z,14.93
2023-05-04T02:08:14.878Z,13.53
2023-05-04T02:10:42.884Z,14.03
2023-05-04T02:13:12.409Z,14.33
2023-05-04T02:15:40.569Z,13.57
2023-05-04T02:18:08.683Z,13.87
2023-05-04T02:20:36.917Z,14.40
2023-05-04T02:23:04.917Z,14.63
2023-05-04T02:25:32.956Z,15.13
2023-05-04T02:28:00.982Z,15.07
2023-05-04T02:30:30.441Z,15.00
2023-05-04T02:32:58.511Z,15.23
2023-05-04T02:35:26.896Z,15.10
2023-05-04T02:37:55.382Z,15.23
2023-05-04T02:40:23.457Z,14.40
2023-05-04T02:42:51.461Z,14.50
2023-05-04T02:45:19.946Z,14.10
2023-05-04T02:47:49.393Z,12.80
2023-05-04T02:50:17.363Z,12.97
2023-05-04T02:52:45.381Z,11.10
2023-05-04T02:55:13.393Z,10.83
2023-05-04T02:57:41.495Z,10.37
2023-05-04T03:00:10.589Z,9.73
2023-05-04T03:02:38.672Z,8.47
2023-05-04T03:05:08.864Z,8.10
2023-05-04T03:07:36.848Z,8.00
2023-05-04T03:10:05.101Z,8.00
2023-05-04T03:12:33.286Z,8.00
2023-05-04T03:15:01.413Z,8.27
2023-05-04T03:17:29.498Z,8.20
2023-05-04T03:19:57.545Z,7.73
2023-05-04T03:22:26.895Z,8.63
2023-05-04T03:24:54.848Z,8.63
2023-05-04T03:27:22.815Z,9.47
2023-05-04T03:29:50.816Z,10.00
2023-05-04T03:32:18.859Z,10.97
2023-05-04T03:34:46.930Z,10.80
2023-05-04T03:37:14.993Z,11.80
2023-05-04T03:39:44.388Z,11.90
2023-05-04T03:42:12.682Z,12.37
2023-05-04T03:44:40.973Z,10.80
2023-05-04T03:47:08.940Z,12.37
2023-05-04T03:49:37.262Z,11.50
2023-05-04T03:52:05.272Z,11.30
2023-05-04T03:54:33.371Z,13.20
2023-05-04T03:57:04.551Z,13.30
2023-05-04T03:59:32.630Z,11.73
2023-05-04T04:02:01.296Z,11.50
2023-05-04T04:04:29.436Z,11.47
2023-05-04T04:06:57.429Z,12.00
2023-05-04T04:09:25.509Z,11.47
2023-05-04T04:11:53.635Z,11.33
2023-05-04T04:14:23.003Z,11.80
2023-05-04T04:16:51.059Z,11.50
2023-05-04T04:19:19.069Z,11.20
2023-05-04T04:21:47.032Z,10.60
2023-05-04T04:24:15.029Z,11.60
2023-05-04T04:26:43.260Z,10.90
2023-05-04T04:29:12.487Z,12.23
2023-05-04T04:31:42.143Z,11.27
2023-05-04T04:34:10.165Z,10.97
2023-05-04T04:36:38.873Z,10.20
2023-05-04T04:39:06.999Z,10.87
2023-05-04T04:41:35.149Z,11.13
2023-05-04T04:44:04.434Z,11.83
2023-05-04T04:46:32.559Z,11.63
2023-05-04T04:49:01.971Z,11.13
2023-05-04T04:51:30.173Z,11.10
2023-05-04T04:53:58.156Z,12.07
2023-05-04T04:56:26.522Z,10.60
2023-05-04T04:58:54.538Z,10.60
2023-05-04T05:01:22.761Z,11.40
2023-05-04T05:03:51.055Z,12.43
2023-05-04T05:06:20.877Z,11.03
2023-05-04T05:08:48.945Z,10.57
2023-05-04T05:11:16.896Z,11.13
2023-05-04T05:13:44.856Z,10.87
2023-05-04T05:16:12.921Z,11.30
2023-05-04T05:18:41.229Z,11.87
2023-05-04T05:21:09.414Z,11.40
2023-05-04T05:23:38.845Z,11.13
2023-05-04T05:26:06.846Z,11.43
2023-05-04T05:28:34.811Z,12.10
2023-05-04T05:31:02.764Z,11.43
2023-05-04T05:33:30.865Z,12.47
2023-05-04T05:35:58.939Z,11.87
2023-05-04T05:38:26.953Z,2.60
2023-05-04T05:40:56.342Z,1.37
2023-05-04T05:43:24.388Z,1.47
2023-05-04T05:45:52.733Z,1.43
2023-05-04T05:48:20.679Z,1.23
2023-05-04T05:50:48.611Z,1.73
2023-05-04T05:53:16.562Z,1.50
2023-05-04T05:55:44.460Z,1.80
2023-05-04T05:58:13.947Z,1.23
2023-05-04T06:00:41.904Z,2.13
2023-05-04T06:03:09.985Z,1.27
2023-05-04T06:05:38.172Z,1.33
2023-05-04T06:08:06.502Z,2.00
2023-05-04T06:10:35.122Z,1.53
2023-05-04T06:13:03.144Z,1.10
2023-05-04T06:15:34.868Z,1.37
2023-05-04T06:18:02.899Z,1.20
2023-05-04T06:20:31.053Z,1.70
2023-05-04T06:22:59.003Z,1.57
2023-05-04T06:25:26.940Z,1.20
2023-05-04T06:27:54.898Z,0.97
2023-05-04T06:30:24.470Z,1.63
2023-05-04T06:32:53.985Z,1.00
2023-05-04T06:35:22.258Z,1.73
2023-05-04T06:40:19.251Z,1.47
2023-05-04T06:42:47.284Z,1.67
2023-05-04T06:45:15.305Z,1.53
2023-05-04T06:47:44.346Z,1.47
2023-05-04T06:50:15.033Z,1.33
2023-05-04T06:52:46.449Z,1.53
2023-05-04T06:55:15.146Z,1.23
2023-05-04T06:57:43.163Z,2.07
2023-05-04T07:00:12.168Z,1.40
2023-05-04T07:02:40.219Z,0.83
2023-05-04T07:05:09.124Z,0.93
2023-05-04T07:07:38.743Z,1.00
2023-05-04T07:10:07.862Z,1.23
2023-05-04T07:12:36.160Z,1.10
2023-05-04T07:15:04.485Z,0.83
2023-05-04T07:17:33.418Z,1.23
2023-05-04T07:20:03.386Z,1.27
2023-05-04T07:22:31.736Z,1.07
2023-05-04T07:25:03.059Z,1.30
2023-05-04T07:27:31.451Z,1.30
2023-05-04T07:29:59.422Z,1.20
2023-05-04T07:32:27.699Z,1.30
2023-05-04T07:34:56.525Z,0.97
2023-05-04T07:37:24.562Z,1.93
2023-05-04T07:39:52.915Z,1.20
2023-05-04T07:42:23.633Z,1.70
2023-05-04T07:44:53.096Z,1.23
2023-05-04T07:47:21.581Z,1.40
2023-05-04T07:49:51.933Z,1.00
2023-05-04T07:52:20.172Z,1.63
2023-05-04T07:54:48.246Z,0.93
2023-05-04T07:57:16.365Z,1.17
2023-05-04T07:59:47.094Z,1.50
2023-05-04T08:02:15.224Z,1.30
2023-05-04T08:04:43.301Z,1.30
2023-05-04T08:07:11.320Z,1.63
2023-05-04T08:09:39.271Z,1.30
2023-05-04T08:12:07.784Z,1.43
2023-05-04T08:14:37.526Z,1.53
2023-05-04T08:17:07.794Z,1.70
2023-05-04T08:19:38.136Z,1.43
2023-05-04T08:22:06.214Z,1.93
2023-05-04T08:24:38.193Z,1.43
2023-05-04T08:27:08.699Z,1.37
2023-05-04T08:29:37.863Z,1.70
2023-05-04T08:32:07.732Z,1.50
2023-05-04T08:34:38.697Z,1.40
2023-05-04T08:37:07.237Z,1.37
2023-05-04T08:39:35.210Z,1.53
2023-05-04T08:42:03.703Z,1.43
2023-05-04T08:44:31.811Z,1.43
2023-05-04T08:47:00.012Z,1.73
2023-05-04T08:49:30.644Z,1.30
2023-05-04T08:52:00.332Z,1.40
2023-05-04T08:54:29.063Z,1.77
2023-05-04T08:56:58.842Z,1.43
2023-05-04T08:59:29.227Z,1.80
2023-05-04T09:01:59.759Z,1.40
2023-05-04T09:04:29.898Z,1.23
2023-05-04T09:06:58.876Z,1.83
2023-05-04T09:09:29.644Z,1.50
2023-05-04T09:11:58.609Z,1.20
2023-05-04T09:14:33.725Z,1.80
2023-05-04T09:17:02.175Z,1.83
2023-05-04T09:19:34.868Z,1.30
2023-05-04T09:22:03.284Z,1.10
2023-05-04T09:24:32.704Z,1.70
2023-05-04T09:27:11.124Z,1.93
2023-05-04T09:29:40.657Z,1.90
2023-05-04T09:32:15.237Z,1.87
2023-05-04T09:34:51.712Z,8.63
2023-05-04T09:37:20.908Z,12.70
2023-05-04T09:39:56.983Z,11.60
2023-05-04T09:42:25.425Z,11.57
2023-05-04T09:45:01.934Z,13.23
2023-05-04T09:47:34.765Z,13.20
2023-05-04T09:50:20.098Z,12.40
2023-05-04T09:52:51.019Z,10.50
2023-05-04T09:55:20.438Z,10.27
2023-05-04T09:57:51.462Z,11.57
2023-05-04T10:00:20.409Z,11.37
2023-05-04T10:02:49.361Z,12.53
2023-05-04T10:05:21.902Z,10.70
2023-05-04T10:07:50.021Z,12.17
2023-05-04T10:10:18.089Z,12.10
2023-05-04T10:12:46.757Z,13.30
2023-05-04T10:15:17.163Z,12.10
2023-05-04T10:18:05.165Z,13.60
2023-05-04T10:21:02.013Z,13.43
2023-05-04T10:23:57.653Z,11.13
2023-05-04T10:26:55.251Z,10.53
2023-05-04T10:29:24.945Z,10.60
2023-05-04T10:31:53.891Z,10.07
2023-05-04T10:34:27.027Z,11.40
2023-05-04T10:36:57.417Z,10.50
2023-05-04T10:39:26.493Z,9.70
2023-05-04T10:41:59.700Z,11.10
2023-05-04T10:44:29.115Z,10.07
2023-05-04T10:47:02.528Z,10.23
2023-05-04T10:49:30.920Z,9.87
2023-05-04T10:52:11.945Z,10.80
2023-05-04T10:54:41.385Z,9.90
2023-05-04T10:57:10.915Z,11.17
2023-05-04T10:59:40.276Z,12.17
2023-05-04T11:02:08.902Z,10.90
2023-05-04T11:04:37.440Z,10.70
2023-05-04T11:07:08.516Z,11.50
2023-05-04T11:09:40.286Z,11.50
2023-05-04T11:12:11.034Z,12.47
2023-05-04T11:14:42.771Z,12.77
2023-05-04T11:17:27.386Z,11.77
2023-05-04T11:19:56.816Z,11.37
2023-05-04T11:22:25.082Z,11.40
2023-05-04T11:24:56.118Z,12.93
2023-05-04T11:27:25.538Z,13.47
2023-05-04T11:30:00.888Z,12.97
2023-05-04T11:32:36.004Z,10.77
2023-05-04T11:35:05.114Z,11.13
2023-05-04T11:37:40.594Z,9.93
2023-05-04T11:40:15.189Z,12.20
2023-05-04T11:42:43.976Z,11.83
2023-05-04T11:45:17.086Z,11.43
2023-05-04T11:47:46.132Z,10.53
2023-05-04T11:50:16.165Z,10.67
2023-05-04T11:52:45.161Z,11.03
2023-05-04T11:55:27.374Z,10.40
2023-05-04T11:57:59.387Z,11.20
2023-05-04T12:00:40.659Z,11.40
2023-05-04T12:03:12.328Z,10.93
2023-05-04T12:05:47.191Z,10.20
2023-05-04T12:08:24.352Z,11.53
2023-05-04T12:10:55.132Z,9.97
2023-05-04T12:13:23.124Z,11.33
2023-05-04T12:15:51.400Z,10.47
2023-05-04T12:18:23.169Z,10.77
2023-05-04T12:20:51.476Z,14.83
2023-05-04T12:23:22.448Z,10.60
2023-05-04T12:25:57.654Z,10.50
2023-05-04T12:28:30.650Z,10.67
2023-05-04T12:30:59.776Z,10.90
2023-05-04T12:33:27.811Z,11.97
2023-05-04T12:35:55.909Z,10.50
2023-05-04T12:38:23.920Z,11.27
2023-05-04T12:40:52.315Z,10.57
2023-05-04T12:43:23.059Z,10.67
2023-05-04T12:45:52.942Z,14.20
2023-05-04T12:48:22.217Z,11.47
2023-05-04T12:50:53.322Z,12.10
2023-05-04T12:53:22.444Z,11.80
2023-05-04T12:55:50.469Z,11.53
2023-05-04T12:58:18.567Z,7.37
2023-05-04T13:00:47.928Z,9.57
2023-05-04T13:03:18.456Z,6.90
2023-05-04T13:05:48.427Z,6.33
2023-05-04T13:08:16.888Z,6.93
2023-05-04T13:10:46.402Z,7.23
2023-05-04T13:13:16.277Z,7.13
2023-05-04T13:15:44.912Z,6.80
2023-05-04T13:18:13.703Z,6.80
2023-05-04T13:20:43.502Z,7.53
2023-05-04T13:23:11.600Z,6.87
2023-05-04T13:25:39.704Z,5.00
2023-05-04T13:28:08.098Z,5.60
2023-05-04T13:30:36.075Z,5.47
2023-05-04T13:33:13.425Z,6.13
2023-05-04T13:35:50.816Z,5.63
2023-05-04T13:38:18.943Z,5.00
2023-05-04T13:40:46.883Z,6.23
2023-05-04T13:43:15.063Z,6.17
2023-05-04T13:45:43.256Z,5.37
2023-05-04T13:48:11.423Z,5.90
2023-05-04T13:50:39.423Z,6.30
2023-05-04T13:53:12.100Z,5.80
2023-05-04T13:55:40.105Z,5.53
2023-05-04T13:58:08.106Z,6.40
2023-05-04T14:00:36.056Z,5.97
2023-05-04T14:03:04.394Z,6.10
2023-05-04T14:05:32.450Z,6.33
2023-05-04T14:08:01.699Z,5.10
2023-05-04T14:10:31.221Z,5.67
2023-05-04T14:12:59.402Z,7.20
2023-05-04T14:15:27.682Z,5.33
2023-05-04T14:17:55.885Z,5.43
2023-05-04T14:20:24.230Z,5.93
2023-05-04T14:22:52.201Z,6.00
2023-05-04T14:25:21.509Z,13.30
2023-05-04T14:27:51.111Z,10.17
2023-05-04T14:30:19.149Z,5.67
2023-05-04T14:32:47.330Z,5.50
2023-05-04T14:35:16.388Z,5.83
2023-05-04T14:37:44.501Z,6.37
2023-05-04T14:40:14.494Z,7.83
2023-05-04T14:42:42.793Z,6.13
2023-05-04T14:45:13.231Z,5.13
2023-05-04T14:47:42.359Z,5.63
2023-05-04T14:50:11.460Z,4.87
2023-05-04T14:52:39.689Z,4.40
2023-05-04T14:55:08.963Z,3.90
2023-05-04T14:57:37.197Z,4.17
2023-05-04T15:00:08.898Z,4.33
2023-05-04T15:02:39.780Z,3.50
2023-05-04T15:05:10.403Z,3.10
2023-05-04T15:07:38.561Z,3.13
2023-05-04T15:10:08.894Z,3.10
2023-05-04T15:12:37.917Z,3.03
2023-05-04T15:15:06.751Z,3.30
2023-05-04T15:17:34.734Z,3.53
2023-05-04T15:20:05.233Z,3.40
2023-05-04T15:22:33.791Z,2.90
2023-05-04T15:25:02.765Z,3.37
2023-05-04T15:27:30.900Z,3.30
2023-05-04T15:29:59.079Z,3.30
2023-05-04T15:32:27.120Z,18.27
2023-05-04T15:35:05.519Z,5.33
2023-05-04T15:37:40.276Z,2.97
2023-05-04T15:40:10.907Z,3.23
2023-05-04T15:42:39.087Z,4.07
2023-05-04T15:45:10.714Z,3.27
2023-05-04T15:47:38.947Z,2.50
2023-05-04T15:50:08.287Z,2.67
2023-05-04T15:52:38.917Z,2.60
2023-05-04T15:55:23.431Z,3.80
2023-05-04T15:57:54.229Z,5.23
2023-05-04T16:00:22.820Z,2.90
2023-05-04T16:02:50.957Z,2.43
2023-05-04T16:05:21.427Z,2.50
2023-05-04T16:07:53.499Z,2.87
2023-05-04T16:10:22.298Z,3.77
2023-05-04T16:12:50.537Z,3.93
2023-05-04T16:15:18.758Z,4.13
2023-05-04T16:17:46.773Z,4.00
2023-05-04T16:20:14.776Z,3.60
2023-05-04T16:22:42.865Z,3.13
2023-05-04T16:25:12.377Z,3.30
2023-05-04T16:27:40.701Z,4.80
2023-05-04T16:30:11.138Z,3.50
2023-05-04T16:32:39.246Z,2.70
2023-05-04T16:35:08.451Z,3.13
2023-05-04T16:37:37.223Z,4.17
2023-05-04T16:40:19.604Z,6.87
2023-05-04T16:42:47.598Z,5.40
2023-05-04T16:45:15.743Z,4.67
2023-05-04T16:47:45.096Z,3.73
2023-05-04T16:50:14.517Z,3.90
2023-05-04T16:52:42.822Z,4.00
2023-05-04T16:55:12.456Z,3.10
2023-05-04T16:57:42.340Z,3.20
2023-05-04T17:00:13.361Z,3.20
2023-05-04T17:02:41.666Z,4.00
2023-05-04T17:05:10.789Z,2.87
2023-05-04T17:07:39.783Z,3.10
2023-05-04T17:10:09.554Z,3.30
2023-05-04T17:12:37.815Z,3.57
2023-05-04T17:15:08.638Z,3.40
2023-05-04T17:17:36.883Z,2.80
2023-05-04T17:20:06.424Z,3.30
2023-05-04T17:22:34.709Z,3.53
2023-05-04T17:25:02.806Z,3.37
2023-05-04T17:27:30.827Z,3.50
2023-05-04T17:29:58.901Z,2.40
2023-05-04T17:32:28.373Z,2.90
2023-05-04T17:35:03.389Z,3.40
2023-05-04T17:37:40.518Z,2.67
2023-05-04T17:40:09.830Z,4.03
2023-05-04T17:42:38.422Z,4.23
2023-05-04T17:45:10.105Z,5.00
2023-05-04T17:47:39.471Z,3.53
2023-05-04T17:50:08.586Z,3.60
2023-05-04T17:52:36.854Z,3.87
2023-05-04T17:55:05.236Z,4.60
2023-05-04T17:57:33.178Z,4.23
2023-05-04T18:00:01.135Z,5.50
2023-05-04T18:02:31.343Z,5.43
2023-05-04T18:05:01.278Z,5.43
2023-05-04T18:07:29.250Z,5.50
2023-05-04T18:09:57.216Z,5.80
2023-05-04T18:12:25.233Z,4.47
2023-05-04T18:14:53.981Z,4.60
2023-05-04T18:17:22.310Z,5.23
2023-05-04T18:19:50.345Z,4.80
2023-05-04T18:22:19.654Z,5.00
2023-05-04T18:24:50.534Z,4.80
2023-05-04T18:27:18.562Z,5.60
2023-05-04T18:29:46.506Z,5.37
2023-05-04T18:32:14.620Z,5.90
2023-05-04T18:34:43.701Z,5.97
2023-05-04T18:37:12.648Z,6.07
2023-05-04T18:39:41.989Z,6.43
2023-05-04T18:42:09.980Z,6.23
2023-05-04T18:44:37.866Z,5.97
2023-05-04T18:47:06.153Z,6.33
2023-05-04T18:49:34.221Z,6.90
2023-05-04T18:52:02.584Z,6.47
2023-05-04T18:54:31.094Z,6.73
2023-05-04T18:57:01.072Z,7.47
2023-05-04T18:59:28.961Z,8.30
2023-05-04T19:01:56.940Z,7.17
2023-05-04T19:04:24.893Z,6.97
2023-05-04T19:06:53.816Z,6.93
2023-05-04T19:09:21.940Z,6.57
2023-05-04T19:11:50.090Z,7.37
2023-05-04T19:14:19.458Z,7.60
2023-05-04T19:16:47.424Z,7.30
2023-05-04T19:19:15.428Z,9.60
2023-05-04T19:21:44.122Z,9.77
2023-05-04T19:24:12.196Z,24.07
2023-05-04T19:26:40.353Z,39.23
2023-05-04T19:29:08.244Z,41.37
2023-05-04T19:31:37.962Z,29.40
2023-05-04T19:34:06.164Z,19.50
2023-05-04T19:36:34.453Z,19.40
2023-05-04T19:39:03.088Z,11.63
2023-05-04T19:41:31.435Z,9.83
2023-05-04T19:43:59.551Z,10.63
2023-05-04T19:46:29.754Z,9.77
2023-05-04T19:48:59.660Z,9.03
2023-05-04T19:51:28.316Z,27.73
2023-05-04T19:53:57.346Z,15.67
2023-05-04T19:56:25.394Z,13.37
2023-05-04T19:58:53.360Z,9.20
2023-05-04T20:01:21.445Z,11.87
2023-05-04T20:03:49.442Z,10.30
2023-05-04T20:06:18.928Z,11.10
2023-05-04T20:08:49.536Z,9.37
2023-05-04T20:11:17.613Z,8.93
2023-05-04T20:13:45.710Z,9.13
2023-05-04T20:16:14.000Z,8.90
2023-05-04T20:18:42.013Z,9.87
2023-05-04T20:21:10.149Z,9.03
2023-05-04T20:23:39.921Z,9.10
2023-05-04T20:26:08.159Z,9.10
2023-05-04T20:28:36.132Z,12.57
2023-05-04T20:31:04.102Z,8.93
2023-05-04T20:33:32.076Z,8.37
2023-05-04T20:36:00.018Z,9.30
2023-05-04T20:38:28.103Z,8.17
2023-05-04T20:40:57.910Z,8.20
2023-05-04T20:43:26.063Z,7.67
2023-05-04T20:45:53.987Z,8.10
2023-05-04T20:48:21.966Z,7.60
2023-05-04T20:50:53.174Z,8.50
2023-05-04T20:53:25.219Z,7.90
2023-05-04T20:55:53.223Z,7.57
2023-05-04T20:58:22.857Z,7.57
2023-05-04T21:00:52.117Z,7.63
2023-05-04T21:03:20.194Z,7.73
2023-05-04T21:05:48.246Z,7.63
2023-05-04T21:08:16.236Z,7.70
2023-05-04T21:10:44.254Z,7.73
2023-05-04T21:13:12.305Z,8.10
2023-05-04T21:15:41.683Z,7.63
2023-05-04T21:18:09.730Z,8.23
2023-05-04T21:20:37.813Z,7.93
2023-05-04T21:23:05.931Z,7.67
2023-05-04T21:25:33.973Z,7.43
2023-05-04T21:28:01.828Z,8.70
2023-05-04T21:30:30.015Z,8.83
2023-05-04T21:33:00.574Z,8.80
2023-05-04T21:35:30.923Z,8.40
2023-05-04T21:38:00.436Z,10.13
2023-05-04T21:40:28.686Z,9.00
2023-05-04T21:42:56.638Z,7.87
2023-05-04T21:45:24.654Z,8.97
2023-05-04T21:47:52.609Z,8.27
2023-05-04T21:50:21.996Z,8.87
2023-05-04T21:52:52.243Z,8.57
2023-05-04T21:55:20.382Z,9.83
2023-05-04T21:57:48.742Z,10.43
2023-05-04T22:00:21.175Z,10.03
2023-05-04T22:02:49.393Z,8.93
2023-05-04T22:05:22.120Z,9.00
2023-05-04T22:07:51.597Z,8.80
2023-05-04T22:10:19.598Z,8.60
2023-05-04T22:12:47.750Z,8.60
2023-05-04T22:15:16.017Z,8.47
2023-05-04T22:17:44.102Z,7.90
2023-05-04T22:20:13.572Z,8.33
2023-05-04T22:22:41.498Z,7.93
2023-05-04T22:25:11.350Z,8.50
2023-05-04T22:27:39.663Z,7.93
2023-05-04T22:30:09.793Z,7.53
2023-05-04T22:32:38.046Z,7.87
2023-05-04T22:35:06.855Z,7.83
2023-05-04T22:37:35.178Z,8.03
2023-05-04T22:40:04.630Z,7.90
2023-05-04T22:42:34.256Z,8.33
2023-05-04T22:45:02.202Z,8.37
2023-05-04T22:47:30.400Z,7.90
2023-05-04T22:49:58.402Z,7.53
2023-05-04T22:52:26.508Z,7.70
2023-05-04T22:54:54.490Z,8.17
2023-05-04T22:57:22.426Z,7.23
2023-05-04T22:59:52.152Z,7.57
2023-05-04T23:02:20.090Z,7.77
2023-05-04T23:04:48.409Z,7.60
2023-05-04T23:07:16.858Z,7.70
2023-05-04T23:09:45.462Z,8.17
2023-05-04T23:12:13.729Z,8.00
2023-05-04T23:14:41.862Z,8.27
2023-05-04T23:17:11.795Z,8.30
2023-05-04T23:19:39.736Z,8.03
2023-05-04T23:22:07.742Z,8.40
2023-05-04T23:24:35.704Z,8.33
2023-05-04T23:27:03.659Z,8.93
2023-05-04T23:29:31.751Z,8.33
2023-05-04T23:31:59.802Z,8.07
2023-05-04T23:34:29.138Z,7.93
2023-05-04T23:36:57.172Z,7.90
2023-05-04T23:39:25.106Z,8.20
2023-05-04T23:41:54.209Z,7.97
2023-05-04T23:44:22.388Z,7.73
2023-05-04T23:46:50.392Z,8.23
2023-05-04T23:49:18.385Z,8.43
2023-05-04T23:51:47.764Z,8.03
2023-05-04T23:54:16.233Z,6.97
2023-05-04T23:56:44.209Z,7.70
2023-05-04T23:59:12.141Z,7.57
